sensor_id;sensor_type;location;lat;lon;timestamp;temperature;humidity
18169;DHT22;49877;50.398;30.324;2022-09-09T00:01:46;11.60;99.90
18169;DHT22;49877;50.398;30.324;2022-09-09T00:04:23;11.60;99.90
18169;DHT22;49877;50.398;30.324;2022-09-09T00:07:01;11.60;99.90
18169;DHT22;49877;50.398;30.324;2022-09-09T00:09:31;11.60;99.90
18169;DHT22;49877;50.398;30.324;2022-09-09T00:12:10;11.50;99.90
18169;DHT22;49877;50.398;30.324;2022-09-09T00:14:48;11.50;99.90
18169;DHT22;49877;50.398;30.324;2022-09-09T00:17:26;11.50;99.90
18169;DHT22;49877;50.398;30.324;2022-09-09T00:20:01;11.50;99.90
18169;DHT22;49877;50.398;30.324;2022-09-09T00:22:30;11.50;99.90
18169;DHT22;49877;50.398;30.324;2022-09-09T00:25:02;11.40;99.90
18169;DHT22;49877;50.398;30.324;2022-09-09T00:27:32;11.40;99.90
18169;DHT22;49877;50.398;30.324;2022-09-09T00:30:15;11.40;99.90
18169;DHT22;49877;50.398;30.324;2022-09-09T00:32:45;11.30;99.90
18169;DHT22;49877;50.398;30.324;2022-09-09T00:35:17;11.40;99.90
18169;DHT22;49877;50.398;30.324;2022-09-09T00:37:47;11.30;99.90
18169;DHT22;49877;50.398;30.324;2022-09-09T00:40:22;11.30;99.90
18169;DHT22;49877;50.398;30.324;2022-09-09T00:42:52;11.30;99.90
18169;DHT22;49877;50.398;30.324;2022-09-09T00:45:38;11.20;99.90
18169;DHT22;49877;50.398;30.324;2022-09-09T00:48:10;11.20;99.90
18169;DHT22;49877;50.398;30.324;2022-09-09T00:50:46;11.20;99.90
18169;DHT22;49877;50.398;30.324;2022-09-09T00:53:27;11.20;99.90
18169;DHT22;49877;50.398;30.324;2022-09-09T00:56:03;11.10;99.90
18169;DHT22;49877;50.398;30.324;2022-09-09T00:58:33;11.10;99.90
18169;DHT22;49877;50.398;30.324;2022-09-09T01:01:04;11.00;99.90
18169;DHT22;49877;50.398;30.324;2022-09-09T01:03:35;11.00;99.90
18169;DHT22;49877;50.398;30.324;2022-09-09T01:06:14;11.00;99.90
18169;DHT22;49877;50.398;30.324;2022-09-09T01:09:04;11.00;99.90
18169;DHT22;49877;50.398;30.324;2022-09-09T01:11:37;10.90;99.90
18169;DHT22;49877;50.398;30.324;2022-09-09T01:14:16;10.90;99.90
18169;DHT22;49877;50.398;30.324;2022-09-09T01:16:47;10.90;99.90
18169;DHT22;49877;50.398;30.324;2022-09-09T01:19:21;10.90;99.90
18169;DHT22;49877;50.398;30.324;2022-09-09T01:21:56;10.90;99.90
18169;DHT22;49877;50.398;30.324;2022-09-09T01:24:35;10.90;99.90
18169;DHT22;49877;50.398;30.324;2022-09-09T01:27:07;10.80;99.90
18169;DHT22;49877;50.398;30.324;2022-09-09T01:29:36;10.80;99.90
18169;DHT22;49877;50.398;30.324;2022-09-09T01:32:39;10.80;99.90
18169;DHT22;49877;50.398;30.324;2022-09-09T01:35:08;10.70;99.90
18169;DHT22;49877;50.398;30.324;2022-09-09T01:37:37;10.70;99.90
18169;DHT22;49877;50.398;30.324;2022-09-09T01:40:05;10.70;99.90
18169;DHT22;49877;50.398;30.324;2022-09-09T01:42:33;10.70;99.90
18169;DHT22;49877;50.398;30.324;2022-09-09T01:45:00;10.70;99.90
18169;DHT22;49877;50.398;30.324;2022-09-09T01:47:27;10.70;99.90
18169;DHT22;49877;50.398;30.324;2022-09-09T01:49:54;10.60;99.90
18169;DHT22;49877;50.398;30.324;2022-09-09T01:52:21;10.60;99.90
18169;DHT22;49877;50.398;30.324;2022-09-09T01:54:48;10.60;99.90
18169;DHT22;49877;50.398;30.324;2022-09-09T01:57:18;10.60;99.90
18169;DHT22;49877;50.398;30.324;2022-09-09T02:00:01;10.60;99.90
18169;DHT22;49877;50.398;30.324;2022-09-09T02:02:32;10.50;99.90
18169;DHT22;49877;50.398;30.324;2022-09-09T02:05:11;10.50;99.90
18169;DHT22;49877;50.398;30.324;2022-09-09T02:07:40;10.40;99.90
18169;DHT22;49877;50.398;30.324;2022-09-09T02:10:11;10.30;99.90
18169;DHT22;49877;50.398;30.324;2022-09-09T02:12:42;10.30;99.90
18169;DHT22;49877;50.398;30.324;2022-09-09T02:15:17;10.20;99.90
18169;DHT22;49877;50.398;30.324;2022-09-09T02:17:46;10.20;99.90
18169;DHT22;49877;50.398;30.324;2022-09-09T02:20:18;10.10;99.90
18169;DHT22;49877;50.398;30.324;2022-09-09T02:22:49;10.10;99.90
18169;DHT22;49877;50.398;30.324;2022-09-09T02:25:19;10.10;99.90
18169;DHT22;49877;50.398;30.324;2022-09-09T02:27:50;10.10;99.90
18169;DHT22;49877;50.398;30.324;2022-09-09T02:30:19;10.10;99.90
18169;DHT22;49877;50.398;30.324;2022-09-09T02:32:47;10.10;99.90
18169;DHT22;49877;50.398;30.324;2022-09-09T02:35:19;10.00;99.90
18169;DHT22;49877;50.398;30.324;2022-09-09T02:37:46;10.10;99.90
18169;DHT22;49877;50.398;30.324;2022-09-09T02:40:14;10.00;99.90
18169;DHT22;49877;50.398;30.324;2022-09-09T02:42:43;10.00;99.90
18169;DHT22;49877;50.398;30.324;2022-09-09T02:45:12;10.00;99.90
18169;DHT22;49877;50.398;30.324;2022-09-09T02:47:47;9.90;99.90
18169;DHT22;49877;50.398;30.324;2022-09-09T02:50:22;9.90;99.90
18169;DHT22;49877;50.398;30.324;2022-09-09T02:52:59;9.90;99.90
18169;DHT22;49877;50.398;30.324;2022-09-09T02:55:38;9.90;99.90
18169;DHT22;49877;50.398;30.324;2022-09-09T02:58:07;9.80;99.90
18169;DHT22;49877;50.398;30.324;2022-09-09T03:00:37;9.90;99.90
18169;DHT22;49877;50.398;30.324;2022-09-09T03:03:07;9.80;99.90
18169;DHT22;49877;50.398;30.324;2022-09-09T03:05:34;9.80;99.90
18169;DHT22;49877;50.398;30.324;2022-09-09T03:08:02;9.80;99.90
18169;DHT22;49877;50.398;30.324;2022-09-09T03:10:29;9.80;99.90
18169;DHT22;49877;50.398;30.324;2022-09-09T03:12:56;9.80;99.90
18169;DHT22;49877;50.398;30.324;2022-09-09T03:15:23;9.80;99.90
18169;DHT22;49877;50.398;30.324;2022-09-09T03:17:54;9.80;99.90
18169;DHT22;49877;50.398;30.324;2022-09-09T03:20:24;9.80;99.90
18169;DHT22;49877;50.398;30.324;2022-09-09T03:22:52;9.80;99.90
18169;DHT22;49877;50.398;30.324;2022-09-09T03:25:19;9.80;99.90
18169;DHT22;49877;50.398;30.324;2022-09-09T03:27:46;9.90;99.90
18169;DHT22;49877;50.398;30.324;2022-09-09T03:30:13;9.90;99.90
18169;DHT22;49877;50.398;30.324;2022-09-09T03:32:41;9.90;99.90
18169;DHT22;49877;50.398;30.324;2022-09-09T03:35:08;9.90;99.90
18169;DHT22;49877;50.398;30.324;2022-09-09T03:37:36;9.90;99.90
18169;DHT22;49877;50.398;30.324;2022-09-09T03:40:05;9.90;99.90
18169;DHT22;49877;50.398;30.324;2022-09-09T03:42:32;10.00;99.90
18169;DHT22;49877;50.398;30.324;2022-09-09T03:44:59;10.00;99.90
18169;DHT22;49877;50.398;30.324;2022-09-09T03:47:26;10.00;99.90
18169;DHT22;49877;50.398;30.324;2022-09-09T03:49:53;10.00;99.90
18169;DHT22;49877;50.398;30.324;2022-09-09T03:52:19;10.10;99.90
18169;DHT22;49877;50.398;30.324;2022-09-09T03:54:48;10.10;99.90
18169;DHT22;49877;50.398;30.324;2022-09-09T03:57:15;10.00;99.90
18169;DHT22;49877;50.398;30.324;2022-09-09T03:59:42;10.10;99.90
18169;DHT22;49877;50.398;30.324;2022-09-09T04:02:10;10.10;99.90
18169;DHT22;49877;50.398;30.324;2022-09-09T04:04:36;10.10;99.90
18169;DHT22;49877;50.398;30.324;2022-09-09T04:07:03;10.10;99.90
18169;DHT22;49877;50.398;30.324;2022-09-09T04:09:32;10.10;99.90
18169;DHT22;49877;50.398;30.324;2022-09-09T04:12:02;10.20;99.90
18169;DHT22;49877;50.398;30.324;2022-09-09T04:14:29;10.20;99.90
18169;DHT22;49877;50.398;30.324;2022-09-09T04:16:56;10.20;99.90
18169;DHT22;49877;50.398;30.324;2022-09-09T04:19:23;10.20;99.90
18169;DHT22;49877;50.398;30.324;2022-09-09T04:21:50;10.20;99.90
18169;DHT22;49877;50.398;30.324;2022-09-09T04:24:18;10.20;99.90
18169;DHT22;49877;50.398;30.324;2022-09-09T04:26:45;10.20;99.90
18169;DHT22;49877;50.398;30.324;2022-09-09T04:29:14;10.20;99.90
18169;DHT22;49877;50.398;30.324;2022-09-09T04:31:41;10.20;99.90
18169;DHT22;49877;50.398;30.324;2022-09-09T04:34:08;10.20;99.90
18169;DHT22;49877;50.398;30.324;2022-09-09T04:36:35;10.20;99.90
18169;DHT22;49877;50.398;30.324;2022-09-09T04:39:02;10.20;99.90
18169;DHT22;49877;50.398;30.324;2022-09-09T04:41:29;10.20;99.90
18169;DHT22;49877;50.398;30.324;2022-09-09T04:43:57;10.20;99.90
18169;DHT22;49877;50.398;30.324;2022-09-09T04:46:26;10.20;99.90
18169;DHT22;49877;50.398;30.324;2022-09-09T04:48:53;10.20;99.90
18169;DHT22;49877;50.398;30.324;2022-09-09T04:51:20;10.30;99.90
18169;DHT22;49877;50.398;30.324;2022-09-09T04:53:47;10.30;99.90
18169;DHT22;49877;50.398;30.324;2022-09-09T04:56:17;10.30;99.90
18169;DHT22;49877;50.398;30.324;2022-09-09T04:58:44;10.40;99.90
18169;DHT22;49877;50.398;30.324;2022-09-09T05:01:13;10.50;99.90
18169;DHT22;49877;50.398;30.324;2022-09-09T05:03:41;10.50;99.90
18169;DHT22;49877;50.398;30.324;2022-09-09T05:06:12;10.60;99.90
18169;DHT22;49877;50.398;30.324;2022-09-09T05:08:40;10.60;99.90
18169;DHT22;49877;50.398;30.324;2022-09-09T05:11:14;10.70;99.90
18169;DHT22;49877;50.398;30.324;2022-09-09T05:13:42;10.80;99.90
18169;DHT22;49877;50.398;30.324;2022-09-09T05:16:08;10.90;99.90
18169;DHT22;49877;50.398;30.324;2022-09-09T05:18:36;11.00;99.90
18169;DHT22;49877;50.398;30.324;2022-09-09T05:21:04;11.00;99.90
18169;DHT22;49877;50.398;30.324;2022-09-09T05:23:31;11.10;99.90
18169;DHT22;49877;50.398;30.324;2022-09-09T05:25:59;11.20;99.90
18169;DHT22;49877;50.398;30.324;2022-09-09T05:28:27;11.30;99.90
18169;DHT22;49877;50.398;30.324;2022-09-09T05:30:58;11.30;99.90
18169;DHT22;49877;50.398;30.324;2022-09-09T05:33:26;11.30;99.90
18169;DHT22;49877;50.398;30.324;2022-09-09T05:35:59;11.40;99.90
18169;DHT22;49877;50.398;30.324;2022-09-09T05:38:28;11.50;99.90
18169;DHT22;49877;50.398;30.324;2022-09-09T05:40:55;11.60;99.90
18169;DHT22;49877;50.398;30.324;2022-09-09T05:43:23;11.70;99.90
18169;DHT22;49877;50.398;30.324;2022-09-09T05:45:59;11.80;99.90
18169;DHT22;49877;50.398;30.324;2022-09-09T05:48:28;11.90;99.90
18169;DHT22;49877;50.398;30.324;2022-09-09T05:50:56;11.90;99.90
18169;DHT22;49877;50.398;30.324;2022-09-09T05:53:23;12.00;99.90
18169;DHT22;49877;50.398;30.324;2022-09-09T05:55:58;12.10;99.90
18169;DHT22;49877;50.398;30.324;2022-09-09T05:58:25;12.10;99.90
18169;DHT22;49877;50.398;30.324;2022-09-09T06:00:52;12.10;99.90
18169;DHT22;49877;50.398;30.324;2022-09-09T06:03:20;12.10;99.90
18169;DHT22;49877;50.398;30.324;2022-09-09T06:05:57;12.10;99.90
18169;DHT22;49877;50.398;30.324;2022-09-09T06:08:24;12.10;99.90
18169;DHT22;49877;50.398;30.324;2022-09-09T06:10:52;12.20;99.90
18169;DHT22;49877;50.398;30.324;2022-09-09T06:13:19;12.30;99.90
18169;DHT22;49877;50.398;30.324;2022-09-09T06:15:49;12.40;99.90
18169;DHT22;49877;50.398;30.324;2022-09-09T06:18:17;12.50;99.90
18169;DHT22;49877;50.398;30.324;2022-09-09T06:33:52;12.60;99.90
18169;DHT22;49877;50.398;30.324;2022-09-09T06:36:22;13.10;99.90
18169;DHT22;49877;50.398;30.324;2022-09-09T06:38:49;13.10;99.90
18169;DHT22;49877;50.398;30.324;2022-09-09T06:41:18;13.10;99.90
18169;DHT22;49877;50.398;30.324;2022-09-09T06:43:45;13.10;99.90
18169;DHT22;49877;50.398;30.324;2022-09-09T06:46:14;13.10;99.90
18169;DHT22;49877;50.398;30.324;2022-09-09T06:48:42;13.20;99.90
18169;DHT22;49877;50.398;30.324;2022-09-09T06:51:12;13.20;99.90
18169;DHT22;49877;50.398;30.324;2022-09-09T06:53:41;13.30;99.90
18169;DHT22;49877;50.398;30.324;2022-09-09T06:56:22;13.30;99.90
18169;DHT22;49877;50.398;30.324;2022-09-09T06:58:50;13.40;99.90
18169;DHT22;49877;50.398;30.324;2022-09-09T07:01:18;13.40;99.90
18169;DHT22;49877;50.398;30.324;2022-09-09T07:03:47;13.40;99.90
18169;DHT22;49877;50.398;30.324;2022-09-09T07:06:18;13.50;99.90
18169;DHT22;49877;50.398;30.324;2022-09-09T07:08:49;13.60;99.90
18169;DHT22;49877;50.398;30.324;2022-09-09T07:11:17;13.70;99.90
18169;DHT22;49877;50.398;30.324;2022-09-09T07:13:44;13.80;99.90
18169;DHT22;49877;50.398;30.324;2022-09-09T07:16:12;13.80;99.90
18169;DHT22;49877;50.398;30.324;2022-09-09T07:18:39;13.90;99.90
18169;DHT22;49877;50.398;30.324;2022-09-09T07:21:08;13.90;99.90
18169;DHT22;49877;50.398;30.324;2022-09-09T07:23:37;14.00;99.90
18169;DHT22;49877;50.398;30.324;2022-09-09T07:26:07;14.00;99.90
18169;DHT22;49877;50.398;30.324;2022-09-09T07:28:34;14.00;99.90
18169;DHT22;49877;50.398;30.324;2022-09-09T07:31:02;14.00;99.90
18169;DHT22;49877;50.398;30.324;2022-09-09T07:33:30;14.00;99.90
18169;DHT22;49877;50.398;30.324;2022-09-09T07:36:03;14.10;99.90
18169;DHT22;49877;50.398;30.324;2022-09-09T07:38:30;14.20;99.90
18169;DHT22;49877;50.398;30.324;2022-09-09T07:41:05;14.20;99.90
18169;DHT22;49877;50.398;30.324;2022-09-09T07:43:32;14.30;99.90
18169;DHT22;49877;50.398;30.324;2022-09-09T07:46:00;14.30;99.90
18169;DHT22;49877;50.398;30.324;2022-09-09T07:48:28;14.40;99.90
18169;DHT22;49877;50.398;30.324;2022-09-09T07:51:06;14.50;99.90
18169;DHT22;49877;50.398;30.324;2022-09-09T07:53:34;14.50;99.90
18169;DHT22;49877;50.398;30.324;2022-09-09T07:56:08;14.60;99.90
18169;DHT22;49877;50.398;30.324;2022-09-09T07:58:36;14.70;99.90
18169;DHT22;49877;50.398;30.324;2022-09-09T08:01:08;14.70;99.90
18169;DHT22;49877;50.398;30.324;2022-09-09T08:03:35;14.80;99.90
18169;DHT22;49877;50.398;30.324;2022-09-09T08:06:02;14.80;99.90
18169;DHT22;49877;50.398;30.324;2022-09-09T08:08:29;14.90;99.90
18169;DHT22;49877;50.398;30.324;2022-09-09T08:11:02;15.00;99.90
18169;DHT22;49877;50.398;30.324;2022-09-09T08:13:31;15.10;99.90
18169;DHT22;49877;50.398;30.324;2022-09-09T08:16:05;15.20;99.90
18169;DHT22;49877;50.398;30.324;2022-09-09T08:18:33;15.20;99.90
18169;DHT22;49877;50.398;30.324;2022-09-09T08:21:06;15.30;99.90
18169;DHT22;49877;50.398;30.324;2022-09-09T08:23:33;15.30;99.90
18169;DHT22;49877;50.398;30.324;2022-09-09T08:26:09;15.30;99.90
18169;DHT22;49877;50.398;30.324;2022-09-09T08:28:38;15.30;99.90
18169;DHT22;49877;50.398;30.324;2022-09-09T08:31:13;15.30;99.90
18169;DHT22;49877;50.398;30.324;2022-09-09T08:33:41;15.40;99.90
18169;DHT22;49877;50.398;30.324;2022-09-09T08:36:12;15.50;99.90
18169;DHT22;49877;50.398;30.324;2022-09-09T08:38:41;15.60;99.90
18169;DHT22;49877;50.398;30.324;2022-09-09T08:41:30;15.70;99.90
18169;DHT22;49877;50.398;30.324;2022-09-09T08:44:06;15.80;98.80
18169;DHT22;49877;50.398;30.324;2022-09-09T08:46:42;15.80;98.40
18169;DHT22;49877;50.398;30.324;2022-09-09T08:49:43;15.80;99.10
18169;DHT22;49877;50.398;30.324;2022-09-09T08:52:17;15.80;98.80
18169;DHT22;49877;50.398;30.324;2022-09-09T08:54:45;15.90;98.50
18169;DHT22;49877;50.398;30.324;2022-09-09T08:57:16;16.00;98.70
18169;DHT22;49877;50.398;30.324;2022-09-09T08:59:46;16.00;98.20
18169;DHT22;49877;50.398;30.324;2022-09-09T09:02:17;16.10;98.10
18169;DHT22;49877;50.398;30.324;2022-09-09T09:04:53;16.20;97.90
18169;DHT22;49877;50.398;30.324;2022-09-09T09:07:32;16.20;97.90
18169;DHT22;49877;50.398;30.324;2022-09-09T09:10:12;16.30;96.80
18169;DHT22;49877;50.398;30.324;2022-09-09T09:12:43;16.40;97.30
18169;DHT22;49877;50.398;30.324;2022-09-09T09:15:18;16.40;97.50
18169;DHT22;49877;50.398;30.324;2022-09-09T09:17:47;16.40;98.10
18169;DHT22;49877;50.398;30.324;2022-09-09T09:20:17;16.50;97.50
18169;DHT22;49877;50.398;30.324;2022-09-09T09:22:48;16.40;97.90
18169;DHT22;49877;50.398;30.324;2022-09-09T09:25:18;16.50;98.20
18169;DHT22;49877;50.398;30.324;2022-09-09T09:27:51;16.50;97.60
18169;DHT22;49877;50.398;30.324;2022-09-09T09:30:23;16.60;97.60
18169;DHT22;49877;50.398;30.324;2022-09-09T09:32:54;16.70;97.70
18169;DHT22;49877;50.398;30.324;2022-09-09T09:35:22;16.70;97.10
18169;DHT22;49877;50.398;30.324;2022-09-09T09:37:49;16.70;97.40
18169;DHT22;49877;50.398;30.324;2022-09-09T09:40:18;16.70;97.50
18169;DHT22;49877;50.398;30.324;2022-09-09T09:42:49;16.80;97.20
18169;DHT22;49877;50.398;30.324;2022-09-09T09:45:27;16.90;96.50
18169;DHT22;49877;50.398;30.324;2022-09-09T09:48:03;16.90;96.20
18169;DHT22;49877;50.398;30.324;2022-09-09T09:50:32;16.90;95.80
18169;DHT22;49877;50.398;30.324;2022-09-09T09:53:02;16.90;95.40
18169;DHT22;49877;50.398;30.324;2022-09-09T09:55:31;16.70;94.80
18169;DHT22;49877;50.398;30.324;2022-09-09T09:58:03;16.60;94.90
18169;DHT22;49877;50.398;30.324;2022-09-09T10:00:32;16.50;95.10
18169;DHT22;49877;50.398;30.324;2022-09-09T10:03:01;16.60;95.20
18169;DHT22;49877;50.398;30.324;2022-09-09T10:05:29;16.70;95.00
18169;DHT22;49877;50.398;30.324;2022-09-09T10:08:04;16.80;94.50
18169;DHT22;49877;50.398;30.324;2022-09-09T10:10:46;16.90;94.40
18169;DHT22;49877;50.398;30.324;2022-09-09T10:13:20;16.90;93.90
18169;DHT22;49877;50.398;30.324;2022-09-09T10:16:01;16.90;93.90
18169;DHT22;49877;50.398;30.324;2022-09-09T10:18:45;16.90;94.20
18169;DHT22;49877;50.398;30.324;2022-09-09T10:21:25;16.90;94.10
18169;DHT22;49877;50.398;30.324;2022-09-09T10:24:10;16.90;93.60
18169;DHT22;49877;50.398;30.324;2022-09-09T10:26:46;16.90;93.50
18169;DHT22;49877;50.398;30.324;2022-09-09T10:29:26;16.90;94.10
18169;DHT22;49877;50.398;30.324;2022-09-09T10:32:07;17.00;93.60
18169;DHT22;49877;50.398;30.324;2022-09-09T10:40:30;17.30;93.50
18169;DHT22;49877;50.398;30.324;2022-09-09T10:43:07;17.30;93.60
18169;DHT22;49877;50.398;30.324;2022-09-09T10:45:44;17.30;93.40
18169;DHT22;49877;50.398;30.324;2022-09-09T10:48:28;17.40;93.00
18169;DHT22;49877;50.398;30.324;2022-09-09T10:51:08;17.40;93.00
18169;DHT22;49877;50.398;30.324;2022-09-09T10:53:48;17.40;92.80
18169;DHT22;49877;50.398;30.324;2022-09-09T10:56:19;17.40;92.40
18169;DHT22;49877;50.398;30.324;2022-09-09T10:58:48;17.40;92.30
18169;DHT22;49877;50.398;30.324;2022-09-09T11:01:21;17.40;92.60
18169;DHT22;49877;50.398;30.324;2022-09-09T11:03:54;17.50;92.00
18169;DHT22;49877;50.398;30.324;2022-09-09T11:06:27;17.50;92.00
18169;DHT22;49877;50.398;30.324;2022-09-09T11:08:57;17.50;92.20
18169;DHT22;49877;50.398;30.324;2022-09-09T11:11:29;17.50;92.20
18169;DHT22;49877;50.398;30.324;2022-09-09T11:14:03;17.50;92.30
18169;DHT22;49877;50.398;30.324;2022-09-09T11:16:36;17.50;92.10
18169;DHT22;49877;50.398;30.324;2022-09-09T11:19:15;17.50;92.20
18169;DHT22;49877;50.398;30.324;2022-09-09T11:21:46;17.50;91.20
18169;DHT22;49877;50.398;30.324;2022-09-09T11:24:17;17.60;91.40
18169;DHT22;49877;50.398;30.324;2022-09-09T11:26:50;17.60;91.90
18169;DHT22;49877;50.398;30.324;2022-09-09T11:32:24;17.60;92.10
18169;DHT22;49877;50.398;30.324;2022-09-09T11:35:17;17.70;92.20
18169;DHT22;49877;50.398;30.324;2022-09-09T11:38:09;17.60;91.50
18169;DHT22;49877;50.398;30.324;2022-09-09T11:40:41;17.60;92.10
18169;DHT22;49877;50.398;30.324;2022-09-09T11:43:10;17.50;91.70
18169;DHT22;49877;50.398;30.324;2022-09-09T11:45:40;17.50;91.60
18169;DHT22;49877;50.398;30.324;2022-09-09T11:48:22;17.50;91.90
18169;DHT22;49877;50.398;30.324;2022-09-09T11:50:59;17.60;91.70
18169;DHT22;49877;50.398;30.324;2022-09-09T11:53:28;17.60;91.50
18169;DHT22;49877;50.398;30.324;2022-09-09T11:56:07;17.60;91.50
18169;DHT22;49877;50.398;30.324;2022-09-09T11:58:41;17.60;91.30
18169;DHT22;49877;50.398;30.324;2022-09-09T12:01:39;17.70;91.50
18169;DHT22;49877;50.398;30.324;2022-09-09T12:04:27;17.70;90.70
18169;DHT22;49877;50.398;30.324;2022-09-09T12:06:59;17.60;91.00
18169;DHT22;49877;50.398;30.324;2022-09-09T12:09:32;17.70;90.40
18169;DHT22;49877;50.398;30.324;2022-09-09T12:12:23;17.60;90.40
18169;DHT22;49877;50.398;30.324;2022-09-09T12:15:03;17.70;90.00
18169;DHT22;49877;50.398;30.324;2022-09-09T12:17:31;17.70;90.00
18169;DHT22;49877;50.398;30.324;2022-09-09T12:20:09;17.70;89.00
18169;DHT22;49877;50.398;30.324;2022-09-09T12:22:46;17.70;89.00
18169;DHT22;49877;50.398;30.324;2022-09-09T12:25:23;17.70;90.20
18169;DHT22;49877;50.398;30.324;2022-09-09T12:28:02;17.70;90.10
18169;DHT22;49877;50.398;30.324;2022-09-09T12:30:34;17.70;90.20
18169;DHT22;49877;50.398;30.324;2022-09-09T12:33:06;17.70;89.80
18169;DHT22;49877;50.398;30.324;2022-09-09T12:35:35;17.70;89.50
18169;DHT22;49877;50.398;30.324;2022-09-09T12:38:06;17.70;89.20
18169;DHT22;49877;50.398;30.324;2022-09-09T12:40:37;17.70;89.70
18169;DHT22;49877;50.398;30.324;2022-09-09T12:43:17;17.70;89.70
18169;DHT22;49877;50.398;30.324;2022-09-09T12:45:46;17.70;88.20
18169;DHT22;49877;50.398;30.324;2022-09-09T12:48:13;17.70;89.10
18169;DHT22;49877;50.398;30.324;2022-09-09T12:50:45;17.70;88.60
18169;DHT22;49877;50.398;30.324;2022-09-09T12:53:19;17.80;89.00
18169;DHT22;49877;50.398;30.324;2022-09-09T12:55:51;17.70;88.20
18169;DHT22;49877;50.398;30.324;2022-09-09T12:58:19;17.70;89.50
18169;DHT22;49877;50.398;30.324;2022-09-09T13:00:49;17.60;89.00
18169;DHT22;49877;50.398;30.324;2022-09-09T13:03:19;17.70;88.90
18169;DHT22;49877;50.398;30.324;2022-09-09T13:05:47;17.60;89.00
18169;DHT22;49877;50.398;30.324;2022-09-09T13:08:17;17.60;88.90
18169;DHT22;49877;50.398;30.324;2022-09-09T13:10:49;17.60;88.60
18169;DHT22;49877;50.398;30.324;2022-09-09T13:13:22;17.60;89.10
18169;DHT22;49877;50.398;30.324;2022-09-09T13:15:52;17.60;89.70
18169;DHT22;49877;50.398;30.324;2022-09-09T13:18:23;17.60;90.00
18169;DHT22;49877;50.398;30.324;2022-09-09T13:20:51;17.60;90.00
18169;DHT22;49877;50.398;30.324;2022-09-09T13:23:20;17.60;90.50
18169;DHT22;49877;50.398;30.324;2022-09-09T13:25:55;17.60;90.90
18169;DHT22;49877;50.398;30.324;2022-09-09T13:28:24;17.60;91.10
18169;DHT22;49877;50.398;30.324;2022-09-09T13:30:56;17.60;91.00
18169;DHT22;49877;50.398;30.324;2022-09-09T13:33:33;17.60;91.10
18169;DHT22;49877;50.398;30.324;2022-09-09T13:36:03;17.50;91.50
18169;DHT22;49877;50.398;30.324;2022-09-09T13:38:35;17.40;91.40
18169;DHT22;49877;50.398;30.324;2022-09-09T13:41:04;17.40;91.50
18169;DHT22;49877;50.398;30.324;2022-09-09T13:43:36;17.30;91.60
18169;DHT22;49877;50.398;30.324;2022-09-09T13:46:28;17.30;91.70
18169;DHT22;49877;50.398;30.324;2022-09-09T13:48:56;17.20;91.90
18169;DHT22;49877;50.398;30.324;2022-09-09T13:51:32;17.20;92.20
18169;DHT22;49877;50.398;30.324;2022-09-09T13:54:01;17.20;92.20
18169;DHT22;49877;50.398;30.324;2022-09-09T13:56:28;17.20;92.00
18169;DHT22;49877;50.398;30.324;2022-09-09T13:58:55;17.10;92.10
18169;DHT22;49877;50.398;30.324;2022-09-09T14:01:23;17.10;92.20
18169;DHT22;49877;50.398;30.324;2022-09-09T14:03:50;17.10;92.20
18169;DHT22;49877;50.398;30.324;2022-09-09T14:06:18;17.10;92.30
18169;DHT22;49877;50.398;30.324;2022-09-09T14:08:46;17.10;92.20
18169;DHT22;49877;50.398;30.324;2022-09-09T14:11:14;17.10;92.20
18169;DHT22;49877;50.398;30.324;2022-09-09T14:13:41;17.20;92.30
18169;DHT22;49877;50.398;30.324;2022-09-09T14:16:08;17.20;92.40
18169;DHT22;49877;50.398;30.324;2022-09-09T14:18:35;17.20;92.20
18169;DHT22;49877;50.398;30.324;2022-09-09T14:21:03;17.20;92.10
18169;DHT22;49877;50.398;30.324;2022-09-09T14:23:30;17.20;92.40
18169;DHT22;49877;50.398;30.324;2022-09-09T14:25:57;17.10;92.10
18169;DHT22;49877;50.398;30.324;2022-09-09T14:28:26;17.10;92.20
18169;DHT22;49877;50.398;30.324;2022-09-09T14:30:54;17.10;92.40
18169;DHT22;49877;50.398;30.324;2022-09-09T14:33:21;17.10;92.50
18169;DHT22;49877;50.398;30.324;2022-09-09T14:35:47;17.00;92.50
18169;DHT22;49877;50.398;30.324;2022-09-09T14:38:14;17.10;92.70
18169;DHT22;49877;50.398;30.324;2022-09-09T14:40:45;17.10;92.90
18169;DHT22;49877;50.398;30.324;2022-09-09T14:43:12;17.00;93.40
18169;DHT22;49877;50.398;30.324;2022-09-09T14:45:41;17.00;93.40
18169;DHT22;49877;50.398;30.324;2022-09-09T14:48:08;17.00;93.70
18169;DHT22;49877;50.398;30.324;2022-09-09T14:50:35;16.90;93.40
18169;DHT22;49877;50.398;30.324;2022-09-09T14:53:05;16.90;93.10
18169;DHT22;49877;50.398;30.324;2022-09-09T14:55:32;16.80;93.20
18169;DHT22;49877;50.398;30.324;2022-09-09T14:57:59;16.80;92.90
18169;DHT22;49877;50.398;30.324;2022-09-09T15:00:26;16.80;92.90
18169;DHT22;49877;50.398;30.324;2022-09-09T15:02:55;16.70;93.10
18169;DHT22;49877;50.398;30.324;2022-09-09T15:05:22;16.70;93.20
18169;DHT22;49877;50.398;30.324;2022-09-09T15:07:50;16.70;93.00
18169;DHT22;49877;50.398;30.324;2022-09-09T15:10:17;16.70;93.50
18169;DHT22;49877;50.398;30.324;2022-09-09T15:12:44;16.70;93.10
18169;DHT22;49877;50.398;30.324;2022-09-09T15:15:11;16.60;93.60
18169;DHT22;49877;50.398;30.324;2022-09-09T15:17:38;16.60;94.00
18169;DHT22;49877;50.398;30.324;2022-09-09T15:20:07;16.50;94.10
18169;DHT22;49877;50.398;30.324;2022-09-09T15:22:34;16.60;94.40
18169;DHT22;49877;50.398;30.324;2022-09-09T15:25:04;16.60;94.70
18169;DHT22;49877;50.398;30.324;2022-09-09T15:27:31;16.60;95.00
18169;DHT22;49877;50.398;30.324;2022-09-09T15:29:59;16.60;95.30
18169;DHT22;49877;50.398;30.324;2022-09-09T15:32:27;16.60;95.40
18169;DHT22;49877;50.398;30.324;2022-09-09T15:34:54;16.60;95.80
18169;DHT22;49877;50.398;30.324;2022-09-09T15:37:22;16.50;95.70
18169;DHT22;49877;50.398;30.324;2022-09-09T15:39:49;16.50;95.80
18169;DHT22;49877;50.398;30.324;2022-09-09T15:42:16;16.50;95.90
18169;DHT22;49877;50.398;30.324;2022-09-09T15:44:43;16.50;96.70
18169;DHT22;49877;50.398;30.324;2022-09-09T15:47:11;16.50;96.90
18169;DHT22;49877;50.398;30.324;2022-09-09T15:49:39;16.50;98.40
18169;DHT22;49877;50.398;30.324;2022-09-09T15:52:06;16.40;98.60
18169;DHT22;49877;50.398;30.324;2022-09-09T15:54:35;16.30;98.50
18169;DHT22;49877;50.398;30.324;2022-09-09T15:57:06;16.30;98.50
18169;DHT22;49877;50.398;30.324;2022-09-09T15:59:33;16.30;98.80
18169;DHT22;49877;50.398;30.324;2022-09-09T16:02:00;16.30;99.30
18169;DHT22;49877;50.398;30.324;2022-09-09T16:04:28;16.30;98.80